sensor_id;sensor_type;location;lat;lon;timestamp;P1;durP1;ratioP1;P2;durP2;ratioP2
58784;SDS011;44557;51.862;19.378;2022-11-20T00:00:16;42.80;;;28.80;;
58784;SDS011;44557;51.862;19.378;2022-11-20T00:01:38;42.90;;;28.30;;
58784;SDS011;44557;51.862;19.378;2022-11-20T00:02:38;42.50;;;27.60;;
58784;SDS011;44557;51.862;19.378;2022-11-20T00:03:39;40.90;;;26.90;;
58784;SDS011;44557;51.862;19.378;2022-11-20T00:04:41;40.60;;;26.40;;
58784;SDS011;44557;51.862;19.378;2022-11-20T00:05:42;41.10;;;26.90;;
58784;SDS011;44557;51.862;19.378;2022-11-20T00:06:43;41.20;;;27.00;;
58784;SDS011;44557;51.862;19.378;2022-11-20T00:07:44;38.20;;;25.40;;
58784;SDS011;44557;51.862;19.378;2022-11-20T00:08:45;39.20;;;26.00;;
58784;SDS011;44557;51.862;19.378;2022-11-20T00:09:46;42.00;;;26.20;;
58784;SDS011;44557;51.862;19.378;2022-11-20T00:10:47;40.40;;;26.30;;
58784;SDS011;44557;51.862;19.378;2022-11-20T00:11:48;42.00;;;26.90;;
58784;SDS011;44557;51.862;19.378;2022-11-20T00:12:49;38.90;;;24.60;;
58784;SDS011;44557;51.862;19.378;2022-11-20T00:13:51;38.50;;;24.90;;
58784;SDS011;44557;51.862;19.378;2022-11-20T00:14:54;40.70;;;26.40;;
58784;SDS011;44557;51.862;19.378;2022-11-20T00:15:58;43.20;;;26.90;;
58784;SDS011;44557;51.862;19.378;2022-11-20T00:17:01;42.50;;;27.60;;
58784;SDS011;44557;51.862;19.378;2022-11-20T00:18:01;44.80;;;28.50;;
58784;SDS011;44557;51.862;19.378;2022-11-20T00:19:02;43.00;;;28.20;;
58784;SDS011;44557;51.862;19.378;2022-11-20T00:20:03;42.90;;;27.20;;
58784;SDS011;44557;51.862;19.378;2022-11-20T00:21:10;44.90;;;28.30;;
58784;SDS011;44557;51.862;19.378;2022-11-20T00:22:12;42.50;;;27.10;;
58784;SDS011;44557;51.862;19.378;2022-11-20T00:23:14;42.80;;;28.10;;
58784;SDS011;44557;51.862;19.378;2022-11-20T00:24:15;43.80;;;27.10;;
58784;SDS011;44557;51.862;19.378;2022-11-20T00:25:16;42.70;;;26.50;;
58784;SDS011;44557;51.862;19.378;2022-11-20T00:26:18;41.00;;;26.10;;
58784;SDS011;44557;51.862;19.378;2022-11-20T00:27:19;42.60;;;26.70;;
58784;SDS011;44557;51.862;19.378;2022-11-20T00:28:20;45.00;;;29.00;;
58784;SDS011;44557;51.862;19.378;2022-11-20T00:29:21;45.60;;;28.60;;
58784;SDS011;44557;51.862;19.378;2022-11-20T00:30:22;44.70;;;28.20;;
58784;SDS011;44557;51.862;19.378;2022-11-20T00:31:23;40.90;;;25.40;;
58784;SDS011;44557;51.862;19.378;2022-11-20T00:32:24;42.60;;;26.40;;
58784;SDS011;44557;51.862;19.378;2022-11-20T00:33:25;42.30;;;26.90;;
58784;SDS011;44557;51.862;19.378;2022-11-20T00:34:26;42.90;;;28.20;;
58784;SDS011;44557;51.862;19.378;2022-11-20T00:35:27;41.90;;;27.00;;
58784;SDS011;44557;51.862;19.378;2022-11-20T00:36:28;45.00;;;28.60;;
58784;SDS011;44557;51.862;19.378;2022-11-20T00:37:32;44.00;;;27.80;;
58784;SDS011;44557;51.862;19.378;2022-11-20T00:38:33;42.80;;;27.00;;
58784;SDS011;44557;51.862;19.378;2022-11-20T00:39:35;44.90;;;27.40;;
58784;SDS011;44557;51.862;19.378;2022-11-20T00:40:36;45.50;;;28.40;;
58784;SDS011;44557;51.862;19.378;2022-11-20T00:41:36;44.90;;;27.90;;
58784;SDS011;44557;51.862;19.378;2022-11-20T00:42:37;45.20;;;27.60;;
58784;SDS011;44557;51.862;19.378;2022-11-20T00:43:38;45.00;;;28.50;;
58784;SDS011;44557;51.862;19.378;2022-11-20T00:44:39;44.50;;;28.40;;
58784;SDS011;44557;51.862;19.378;2022-11-20T00:45:40;42.30;;;28.30;;
58784;SDS011;44557;51.862;19.378;2022-11-20T00:46:41;43.70;;;29.00;;
58784;SDS011;44557;51.862;19.378;2022-11-20T00:47:42;42.50;;;28.30;;
58784;SDS011;44557;51.862;19.378;2022-11-20T00:48:43;45.20;;;29.00;;
58784;SDS011;44557;51.862;19.378;2022-11-20T00:49:45;44.00;;;28.00;;
58784;SDS011;44557;51.862;19.378;2022-11-20T00:50:45;44.50;;;28.40;;
58784;SDS011;44557;51.862;19.378;2022-11-20T00:51:46;47.50;;;30.80;;
58784;SDS011;44557;51.862;19.378;2022-11-20T00:52:47;45.20;;;28.90;;
58784;SDS011;44557;51.862;19.378;2022-11-20T00:53:48;46.60;;;29.20;;
58784;SDS011;44557;51.862;19.378;2022-11-20T00:54:49;44.70;;;28.60;;
58784;SDS011;44557;51.862;19.378;2022-11-20T00:55:57;41.80;;;26.50;;
58784;SDS011;44557;51.862;19.378;2022-11-20T00:56:59;45.30;;;28.80;;
58784;SDS011;44557;51.862;19.378;2022-11-20T00:57:59;46.20;;;29.30;;
58784;SDS011;44557;51.862;19.378;2022-11-20T00:59:00;48.10;;;28.60;;
58784;SDS011;44557;51.862;19.378;2022-11-20T01:00:02;43.90;;;27.30;;
58784;SDS011;44557;51.862;19.378;2022-11-20T01:01:06;45.30;;;28.80;;
58784;SDS011;44557;51.862;19.378;2022-11-20T01:02:12;45.60;;;28.40;;
58784;SDS011;44557;51.862;19.378;2022-11-20T01:03:13;46.60;;;29.10;;
58784;SDS011;44557;51.862;19.378;2022-11-20T01:04:14;42.30;;;26.40;;
58784;SDS011;44557;51.862;19.378;2022-11-20T01:05:15;42.90;;;28.20;;
58784;SDS011;44557;51.862;19.378;2022-11-20T01:06:19;45.90;;;29.70;;
58784;SDS011;44557;51.862;19.378;2022-11-20T01:07:22;45.10;;;29.20;;
58784;SDS011;44557;51.862;19.378;2022-11-20T01:08:23;45.80;;;28.40;;
58784;SDS011;44557;51.862;19.378;2022-11-20T01:09:24;46.20;;;28.20;;
58784;SDS011;44557;51.862;19.378;2022-11-20T01:10:25;45.00;;;28.80;;
58784;SDS011;44557;51.862;19.378;2022-11-20T01:11:27;45.10;;;27.30;;
58784;SDS011;44557;51.862;19.378;2022-11-20T01:12:30;42.10;;;27.00;;
58784;SDS011;44557;51.862;19.378;2022-11-20T01:13:31;42.10;;;27.20;;
58784;SDS011;44557;51.862;19.378;2022-11-20T01:14:38;47.30;;;30.00;;
58784;SDS011;44557;51.862;19.378;2022-11-20T01:15:39;47.10;;;29.70;;
58784;SDS011;44557;51.862;19.378;2022-11-20T01:16:41;43.70;;;27.60;;
58784;SDS011;44557;51.862;19.378;2022-11-20T01:17:44;46.20;;;29.90;;
58784;SDS011;44557;51.862;19.378;2022-11-20T01:18:46;41.90;;;26.90;;
58784;SDS011;44557;51.862;19.378;2022-11-20T01:19:49;47.00;;;29.10;;
58784;SDS011;44557;51.862;19.378;2022-11-20T01:20:51;45.10;;;29.00;;
58784;SDS011;44557;51.862;19.378;2022-11-20T01:21:52;43.40;;;27.70;;
58784;SDS011;44557;51.862;19.378;2022-11-20T01:22:54;47.70;;;29.90;;
58784;SDS011;44557;51.862;19.378;2022-11-20T01:23:56;45.20;;;28.10;;
58784;SDS011;44557;51.862;19.378;2022-11-20T01:24:57;45.90;;;29.90;;
58784;SDS011;44557;51.862;19.378;2022-11-20T01:26:05;44.00;;;28.90;;
58784;SDS011;44557;51.862;19.378;2022-11-20T01:27:09;45.50;;;28.00;;
58784;SDS011;44557;51.862;19.378;2022-11-20T01:28:11;43.30;;;27.40;;
58784;SDS011;44557;51.862;19.378;2022-11-20T01:29:19;43.50;;;27.70;;
58784;SDS011;44557;51.862;19.378;2022-11-20T01:30:22;44.60;;;28.70;;
58784;SDS011;44557;51.862;19.378;2022-11-20T01:32:29;45.30;;;27.80;;
58784;SDS011;44557;51.862;19.378;2022-11-20T01:33:30;45.60;;;28.40;;
58784;SDS011;44557;51.862;19.378;2022-11-20T01:34:31;39.80;;;24.50;;
58784;SDS011;44557;51.862;19.378;2022-11-20T01:35:32;45.90;;;30.00;;
58784;SDS011;44557;51.862;19.378;2022-11-20T01:36:33;47.30;;;29.80;;
58784;SDS011;44557;51.862;19.378;2022-11-20T01:37:36;48.70;;;30.30;;
58784;SDS011;44557;51.862;19.378;2022-11-20T01:38:36;44.00;;;26.80;;
58784;SDS011;44557;51.862;19.378;2022-11-20T01:39:37;46.40;;;28.60;;
58784;SDS011;44557;51.862;19.378;2022-11-20T01:40:38;46.40;;;28.20;;
58784;SDS011;44557;51.862;19.378;2022-11-20T01:41:39;46.10;;;30.80;;
58784;SDS011;44557;51.862;19.378;2022-11-20T01:43:09;45.70;;;28.60;;
58784;SDS011;44557;51.862;19.378;2022-11-20T01:44:22;45.70;;;28.70;;
58784;SDS011;44557;51.862;19.378;2022-11-20T01:47:39;47.30;;;29.40;;
58784;SDS011;44557;51.862;19.378;2022-11-20T01:49:50;46.80;;;29.10;;
58784;SDS011;44557;51.862;19.378;2022-11-20T01:50:57;43.50;;;26.40;;
58784;SDS011;44557;51.862;19.378;2022-11-20T01:51:59;46.00;;;29.30;;
58784;SDS011;44557;51.862;19.378;2022-11-20T01:53:05;45.90;;;28.20;;
58784;SDS011;44557;51.862;19.378;2022-11-20T01:54:12;39.80;;;25.00;;
58784;SDS011;44557;51.862;19.378;2022-11-20T01:55:19;46.10;;;28.70;;
58784;SDS011;44557;51.862;19.378;2022-11-20T01:56:24;46.00;;;28.90;;
58784;SDS011;44557;51.862;19.378;2022-11-20T01:57:29;44.20;;;28.20;;
58784;SDS011;44557;51.862;19.378;2022-11-20T01:58:33;43.00;;;27.40;;
58784;SDS011;44557;51.862;19.378;2022-11-20T01:59:41;45.40;;;27.90;;
58784;SDS011;44557;51.862;19.378;2022-11-20T02:00:48;45.50;;;27.90;;
58784;SDS011;44557;51.862;19.378;2022-11-20T02:01:49;49.20;;;29.00;;
58784;SDS011;44557;51.862;19.378;2022-11-20T02:02:52;47.20;;;30.20;;
58784;SDS011;44557;51.862;19.378;2022-11-20T02:03:58;50.00;;;29.40;;
58784;SDS011;44557;51.862;19.378;2022-11-20T02:05:01;45.50;;;27.90;;
58784;SDS011;44557;51.862;19.378;2022-11-20T02:06:19;43.80;;;28.70;;
58784;SDS011;44557;51.862;19.378;2022-11-20T02:07:42;47.60;;;30.00;;
58784;SDS011;44557;51.862;19.378;2022-11-20T02:08:44;44.10;;;27.40;;
58784;SDS011;44557;51.862;19.378;2022-11-20T02:09:45;46.80;;;29.80;;
58784;SDS011;44557;51.862;19.378;2022-11-20T02:10:46;49.60;;;29.50;;
58784;SDS011;44557;51.862;19.378;2022-11-20T02:11:47;44.50;;;28.40;;
58784;SDS011;44557;51.862;19.378;2022-11-20T02:12:48;45.20;;;28.10;;
58784;SDS011;44557;51.862;19.378;2022-11-20T02:14:07;50.90;;;31.40;;
58784;SDS011;44557;51.862;19.378;2022-11-20T02:15:09;46.80;;;30.90;;
58784;SDS011;44557;51.862;19.378;2022-11-20T02:16:12;46.50;;;29.00;;
58784;SDS011;44557;51.862;19.378;2022-11-20T02:17:15;46.80;;;30.20;;
58784;SDS011;44557;51.862;19.378;2022-11-20T02:18:17;47.40;;;31.10;;
58784;SDS011;44557;51.862;19.378;2022-11-20T02:20:27;48.00;;;29.90;;
58784;SDS011;44557;51.862;19.378;2022-11-20T02:21:30;52.00;;;31.70;;
58784;SDS011;44557;51.862;19.378;2022-11-20T02:23:38;50.30;;;30.50;;
58784;SDS011;44557;51.862;19.378;2022-11-20T02:24:24;53.20;;;32.10;;
58784;SDS011;44557;51.862;19.378;2022-11-20T02:25:25;46.50;;;30.20;;
58784;SDS011;44557;51.862;19.378;2022-11-20T02:26:28;53.20;;;32.30;;
58784;SDS011;44557;51.862;19.378;2022-11-20T02:27:33;52.90;;;33.10;;
58784;SDS011;44557;51.862;19.378;2022-11-20T02:28:34;45.00;;;27.90;;
58784;SDS011;44557;51.862;19.378;2022-11-20T02:29:52;49.40;;;30.20;;
58784;SDS011;44557;51.862;19.378;2022-11-20T02:30:57;49.90;;;31.70;;
58784;SDS011;44557;51.862;19.378;2022-11-20T02:31:58;50.50;;;31.60;;
58784;SDS011;44557;51.862;19.378;2022-11-20T02:33:01;52.00;;;31.90;;
58784;SDS011;44557;51.862;19.378;2022-11-20T02:34:02;47.70;;;30.40;;
58784;SDS011;44557;51.862;19.378;2022-11-20T02:36:30;47.20;;;30.70;;
58784;SDS011;44557;51.862;19.378;2022-11-20T02:37:34;46.90;;;29.90;;
58784;SDS011;44557;51.862;19.378;2022-11-20T02:38:39;50.60;;;30.60;;
58784;SDS011;44557;51.862;19.378;2022-11-20T02:39:40;47.30;;;28.60;;
58784;SDS011;44557;51.862;19.378;2022-11-20T02:40:42;49.50;;;30.10;;
58784;SDS011;44557;51.862;19.378;2022-11-20T02:41:43;48.00;;;28.60;;
58784;SDS011;44557;51.862;19.378;2022-11-20T02:42:44;48.70;;;29.70;;
58784;SDS011;44557;51.862;19.378;2022-11-20T02:43:45;49.80;;;32.00;;
58784;SDS011;44557;51.862;19.378;2022-11-20T02:44:46;50.10;;;30.90;;
58784;SDS011;44557;51.862;19.378;2022-11-20T02:45:47;50.50;;;31.90;;
58784;SDS011;44557;51.862;19.378;2022-11-20T02:46:48;52.00;;;32.80;;
58784;SDS011;44557;51.862;19.378;2022-11-20T02:47:49;51.50;;;31.90;;
58784;SDS011;44557;51.862;19.378;2022-11-20T02:48:50;51.70;;;31.90;;
58784;SDS011;44557;51.862;19.378;2022-11-20T02:49:51;49.30;;;30.20;;
58784;SDS011;44557;51.862;19.378;2022-11-20T02:50:52;45.50;;;29.40;;
58784;SDS011;44557;51.862;19.378;2022-11-20T02:51:53;48.50;;;29.50;;
58784;SDS011;44557;51.862;19.378;2022-11-20T02:52:54;47.70;;;29.30;;
58784;SDS011;44557;51.862;19.378;2022-11-20T02:53:55;49.80;;;30.80;;
58784;SDS011;44557;51.862;19.378;2022-11-20T02:54:55;50.30;;;31.20;;
58784;SDS011;44557;51.862;19.378;2022-11-20T02:55:56;49.80;;;30.30;;
58784;SDS011;44557;51.862;19.378;2022-11-20T02:56:57;51.50;;;30.40;;
58784;SDS011;44557;51.862;19.378;2022-11-20T02:57:58;50.40;;;29.40;;
58784;SDS011;44557;51.862;19.378;2022-11-20T02:58:59;49.60;;;31.70;;
58784;SDS011;44557;51.862;19.378;2022-11-20T03:00:00;49.90;;;31.50;;
58784;SDS011;44557;51.862;19.378;2022-11-20T03:01:01;54.00;;;32.70;;
58784;SDS011;44557;51.862;19.378;2022-11-20T03:02:02;49.10;;;30.10;;
58784;SDS011;44557;51.862;19.378;2022-11-20T03:03:03;48.80;;;31.20;;
58784;SDS011;44557;51.862;19.378;2022-11-20T03:04:04;52.30;;;33.40;;
58784;SDS011;44557;51.862;19.378;2022-11-20T03:05:05;48.80;;;31.00;;
58784;SDS011;44557;51.862;19.378;2022-11-20T03:06:06;51.40;;;32.00;;
58784;SDS011;44557;51.862;19.378;2022-11-20T03:07:08;53.10;;;31.30;;
58784;SDS011;44557;51.862;19.378;2022-11-20T03:08:10;50.40;;;31.60;;
58784;SDS011;44557;51.862;19.378;2022-11-20T03:09:11;50.30;;;31.30;;
58784;SDS011;44557;51.862;19.378;2022-11-20T03:10:12;50.90;;;30.80;;
58784;SDS011;44557;51.862;19.378;2022-11-20T03:11:13;51.20;;;31.60;;
58784;SDS011;44557;51.862;19.378;2022-11-20T03:12:14;48.60;;;31.40;;
58784;SDS011;44557;51.862;19.378;2022-11-20T03:13:14;53.30;;;32.70;;
58784;SDS011;44557;51.862;19.378;2022-11-20T03:14:15;48.90;;;30.10;;
58784;SDS011;44557;51.862;19.378;2022-11-20T03:15:16;49.60;;;31.90;;
58784;SDS011;44557;51.862;19.378;2022-11-20T03:16:19;48.80;;;30.20;;
58784;SDS011;44557;51.862;19.378;2022-11-20T03:17:21;52.30;;;31.40;;
58784;SDS011;44557;51.862;19.378;2022-11-20T03:18:22;52.00;;;32.10;;
58784;SDS011;44557;51.862;19.378;2022-11-20T03:19:23;52.70;;;33.80;;
58784;SDS011;44557;51.862;19.378;2022-11-20T03:20:24;53.40;;;33.00;;
58784;SDS011;44557;51.862;19.378;2022-11-20T03:21:25;53.30;;;32.20;;
58784;SDS011;44557;51.862;19.378;2022-11-20T03:22:28;48.00;;;30.70;;
58784;SDS011;44557;51.862;19.378;2022-11-20T03:23:30;51.40;;;31.70;;
58784;SDS011;44557;51.862;19.378;2022-11-20T03:24:32;51.70;;;33.00;;
58784;SDS011;44557;51.862;19.378;2022-11-20T03:25:33;55.20;;;30.60;;
58784;SDS011;44557;51.862;19.378;2022-11-20T03:26:34;49.60;;;29.50;;
58784;SDS011;44557;51.862;19.378;2022-11-20T03:27:35;54.50;;;32.60;;
58784;SDS011;44557;51.862;19.378;2022-11-20T03:28:36;53.70;;;32.90;;
58784;SDS011;44557;51.862;19.378;2022-11-20T03:29:37;49.70;;;31.20;;
58784;SDS011;44557;51.862;19.378;2022-11-20T03:30:37;51.00;;;31.80;;
58784;SDS011;44557;51.862;19.378;2022-11-20T03:31:39;54.00;;;32.10;;
58784;SDS011;44557;51.862;19.378;2022-11-20T03:32:41;50.50;;;32.00;;
58784;SDS011;44557;51.862;19.378;2022-11-20T03:33:42;54.70;;;33.20;;
58784;SDS011;44557;51.862;19.378;2022-11-20T03:34:43;49.50;;;31.80;;
58784;SDS011;44557;51.862;19.378;2022-11-20T03:35:44;52.70;;;31.30;;
58784;SDS011;44557;51.862;19.378;2022-11-20T03:36:45;52.30;;;32.20;;
58784;SDS011;44557;51.862;19.378;2022-11-20T03:37:46;52.10;;;31.60;;
58784;SDS011;44557;51.862;19.378;2022-11-20T03:38:47;48.20;;;30.40;;
58784;SDS011;44557;51.862;19.378;2022-11-20T03:39:48;51.10;;;31.90;;
58784;SDS011;44557;51.862;19.378;2022-11-20T03:40:49;51.60;;;31.20;;
58784;SDS011;44557;51.862;19.378;2022-11-20T03:41:50;54.30;;;33.80;;
58784;SDS011;44557;51.862;19.378;2022-11-20T03:42:51;53.60;;;33.30;;
58784;SDS011;44557;51.862;19.378;2022-11-20T03:43:53;47.70;;;31.60;;
58784;SDS011;44557;51.862;19.378;2022-11-20T03:44:56;54.30;;;32.40;;
58784;SDS011;44557;51.862;19.378;2022-11-20T03:45:57;53.60;;;33.70;;
58784;SDS011;44557;51.862;19.378;2022-11-20T03:46:58;52.40;;;33.10;;
58784;SDS011;44557;51.862;19.378;2022-11-20T03:47:59;54.00;;;33.70;;
58784;SDS011;44557;51.862;19.378;2022-11-20T03:49:00;54.90;;;33.00;;
58784;SDS011;44557;51.862;19.378;2022-11-20T03:50:01;49.70;;;30.40;;
58784;SDS011;44557;51.862;19.378;2022-11-20T03:51:09;51.70;;;31.20;;
58784;SDS011;44557;51.862;19.378;2022-11-20T03:52:17;52.90;;;31.20;;
58784;SDS011;44557;51.862;19.378;2022-11-20T03:53:18;50.00;;;31.50;;
58784;SDS011;44557;51.862;19.378;2022-11-20T03:54:20;49.00;;;31.40;;
58784;SDS011;44557;51.862;19.378;2022-11-20T03:55:21;51.70;;;32.10;;
58784;SDS011;44557;51.862;19.378;2022-11-20T03:56:23;55.10;;;31.70;;
58784;SDS011;44557;51.862;19.378;2022-11-20T03:57:25;49.80;;;31.10;;
58784;SDS011;44557;51.862;19.378;2022-11-20T03:58:26;49.50;;;31.90;;
58784;SDS011;44557;51.862;19.378;2022-11-20T03:59:27;51.80;;;32.00;;
58784;SDS011;44557;51.862;19.378;2022-11-20T04:00:28;48.00;;;30.90;;
58784;SDS011;44557;51.862;19.378;2022-11-20T04:01:30;49.80;;;31.80;;
58784;SDS011;44557;51.862;19.378;2022-11-20T04:02:34;54.70;;;33.50;;
58784;SDS011;44557;51.862;19.378;2022-11-20T04:03:35;54.30;;;32.20;;
58784;SDS011;44557;51.862;19.378;2022-11-20T04:04:37;52.00;;;33.20;;
58784;SDS011;44557;51.862;19.378;2022-11-20T04:05:38;52.30;;;33.70;;
58784;SDS011;44557;51.862;19.378;2022-11-20T04:06:39;53.40;;;33.50;;
58784;SDS011;44557;51.862;19.378;2022-11-20T04:07:40;54.70;;;34.10;;
58784;SDS011;44557;51.862;19.378;2022-11-20T04:08:40;54.10;;;34.60;;
58784;SDS011;44557;51.862;19.378;2022-11-20T04:09:42;54.50;;;35.30;;
58784;SDS011;44557;51.862;19.378;2022-11-20T04:10:43;52.70;;;34.30;;
58784;SDS011;44557;51.862;19.378;2022-11-20T04:11:44;56.10;;;35.10;;
58784;SDS011;44557;51.862;19.378;2022-11-20T04:12:45;52.10;;;32.10;;
58784;SDS011;44557;51.862;19.378;2022-11-20T04:13:47;53.00;;;32.60;;
58784;SDS011;44557;51.862;19.378;2022-11-20T04:14:50;50.20;;;32.20;;
58784;SDS011;44557;51.862;19.378;2022-11-20T04:15:51;57.30;;;33.80;;
58784;SDS011;44557;51.862;19.378;2022-11-20T04:16:58;54.50;;;31.90;;
58784;SDS011;44557;51.862;19.378;2022-11-20T04:17:59;52.80;;;32.50;;
58784;SDS011;44557;51.862;19.378;2022-11-20T04:19:00;55.10;;;33.30;;
58784;SDS011;44557;51.862;19.378;2022-11-20T04:20:03;56.80;;;35.20;;
58784;SDS011;44557;51.862;19.378;2022-11-20T04:21:05;57.90;;;36.20;;
58784;SDS011;44557;51.862;19.378;2022-11-20T04:22:06;58.50;;;35.70;;
58784;SDS011;44557;51.862;19.378;2022-11-20T04:23:07;59.40;;;36.70;;
58784;SDS011;44557;51.862;19.378;2022-11-20T04:24:08;58.90;;;35.20;;
58784;SDS011;44557;51.862;19.378;2022-11-20T04:25:09;57.70;;;36.30;;
58784;SDS011;44557;51.862;19.378;2022-11-20T04:26:10;55.50;;;36.40;;
58784;SDS011;44557;51.862;19.378;2022-11-20T04:27:12;58.70;;;36.10;;
58784;SDS011;44557;51.862;19.378;2022-11-20T04:28:13;56.50;;;35.20;;
58784;SDS011;44557;51.862;19.378;2022-11-20T04:29:14;57.50;;;35.10;;
58784;SDS011;44557;51.862;19.378;2022-11-20T04:30:15;57.60;;;34.90;;
58784;SDS011;44557;51.862;19.378;2022-11-20T04:31:17;53.90;;;34.50;;
58784;SDS011;44557;51.862;19.378;2022-11-20T04:32:19;54.90;;;33.80;;
58784;SDS011;44557;51.862;19.378;2022-11-20T04:33:20;55.10;;;34.80;;
58784;SDS011;44557;51.862;19.378;2022-11-20T04:34:21;55.50;;;34.10;;
58784;SDS011;44557;51.862;19.378;2022-11-20T04:35:22;55.80;;;34.50;;
58784;SDS011;44557;51.862;19.378;2022-11-20T04:36:26;58.20;;;37.00;;
58784;SDS011;44557;51.862;19.378;2022-11-20T04:37:28;59.40;;;37.90;;
58784;SDS011;44557;51.862;19.378;2022-11-20T04:38:29;58.10;;;36.40;;
58784;SDS011;44557;51.862;19.378;2022-11-20T04:39:30;55.00;;;34.70;;
58784;SDS011;44557;51.862;19.378;2022-11-20T04:40:30;55.60;;;35.80;;
58784;SDS011;44557;51.862;19.378;2022-11-20T04:41:33;63.20;;;37.90;;
58784;SDS011;44557;51.862;19.378;2022-11-20T04:42:35;57.30;;;35.40;;
58784;SDS011;44557;51.862;19.378;2022-11-20T04:43:36;58.20;;;36.40;;
58784;SDS011;44557;51.862;19.378;2022-11-20T04:44:37;58.00;;;35.80;;
58784;SDS011;44557;51.862;19.378;2022-11-20T04:45:38;60.20;;;36.60;;
58784;SDS011;44557;51.862;19.378;2022-11-20T04:46:40;58.70;;;37.50;;
58784;SDS011;44557;51.862;19.378;2022-11-20T04:47:42;58.90;;;38.00;;
58784;SDS011;44557;51.862;19.378;2022-11-20T04:48:43;62.40;;;38.60;;
58784;SDS011;44557;51.862;19.378;2022-11-20T04:49:44;60.70;;;37.60;;
58784;SDS011;44557;51.862;19.378;2022-11-20T04:50:45;62.20;;;37.50;;
58784;SDS011;44557;51.862;19.378;2022-11-20T04:51:46;59.00;;;35.70;;
58784;SDS011;44557;51.862;19.378;2022-11-20T04:52:47;62.80;;;37.30;;
58784;SDS011;44557;51.862;19.378;2022-11-20T04:53:48;60.40;;;36.90;;
58784;SDS011;44557;51.862;19.378;2022-11-20T04:54:49;63.30;;;38.70;;
58784;SDS011;44557;51.862;19.378;2022-11-20T04:55:58;63.60;;;38.40;;
58784;SDS011;44557;51.862;19.378;2022-11-20T04:57:04;60.50;;;38.40;;
58784;SDS011;44557;51.862;19.378;2022-11-20T04:58:06;60.80;;;37.40;;
58784;SDS011;44557;51.862;19.378;2022-11-20T04:59:07;65.90;;;38.90;;
58784;SDS011;44557;51.862;19.378;2022-11-20T05:00:08;63.00;;;39.20;;
58784;SDS011;44557;51.862;19.378;2022-11-20T05:01:11;55.30;;;34.80;;
58784;SDS011;44557;51.862;19.378;2022-11-20T05:02:14;62.50;;;39.00;;
58784;SDS011;44557;51.862;19.378;2022-11-20T05:03:15;65.50;;;38.20;;
58784;SDS011;44557;51.862;19.378;2022-11-20T05:04:16;64.00;;;38.50;;
58784;SDS011;44557;51.862;19.378;2022-11-20T05:05:17;67.60;;;40.30;;
58784;SDS011;44557;51.862;19.378;2022-11-20T05:06:18;59.40;;;38.10;;
58784;SDS011;44557;51.862;19.378;2022-11-20T05:07:21;59.30;;;35.90;;
58784;SDS011;44557;51.862;19.378;2022-11-20T05:08:22;61.40;;;38.90;;
58784;SDS011;44557;51.862;19.378;2022-11-20T05:09:23;61.50;;;37.40;;
58784;SDS011;44557;51.862;19.378;2022-11-20T05:10:24;60.60;;;37.90;;
58784;SDS011;44557;51.862;19.378;2022-11-20T05:11:26;63.00;;;37.00;;
58784;SDS011;44557;51.862;19.378;2022-11-20T05:12:29;62.70;;;39.50;;
58784;SDS011;44557;51.862;19.378;2022-11-20T05:13:30;63.80;;;38.90;;
58784;SDS011;44557;51.862;19.378;2022-11-20T05:14:31;63.20;;;38.50;;
58784;SDS011;44557;51.862;19.378;2022-11-20T05:15:32;64.00;;;39.00;;
58784;SDS011;44557;51.862;19.378;2022-11-20T05:16:33;70.60;;;42.40;;
58784;SDS011;44557;51.862;19.378;2022-11-20T05:17:35;69.50;;;42.10;;
58784;SDS011;44557;51.862;19.378;2022-11-20T05:18:36;69.80;;;42.30;;
58784;SDS011;44557;51.862;19.378;2022-11-20T05:19:38;68.80;;;41.10;;
58784;SDS011;44557;51.862;19.378;2022-11-20T05:20:39;70.60;;;42.20;;
58784;SDS011;44557;51.862;19.378;2022-11-20T05:21:40;70.70;;;42.40;;
58784;SDS011;44557;51.862;19.378;2022-11-20T05:22:41;69.60;;;41.00;;
58784;SDS011;44557;51.862;19.378;2022-11-20T05:23:43;75.70;;;45.10;;
58784;SDS011;44557;51.862;19.378;2022-11-20T05:24:45;71.30;;;43.60;;
58784;SDS011;44557;51.862;19.378;2022-11-20T05:25:45;81.30;;;48.60;;
58784;SDS011;44557;51.862;19.378;2022-11-20T05:26:46;74.60;;;46.80;;
58784;SDS011;44557;51.862;19.378;2022-11-20T05:27:47;76.90;;;47.90;;
58784;SDS011;44557;51.862;19.378;2022-11-20T05:28:48;73.40;;;46.50;;
58784;SDS011;44557;51.862;19.378;2022-11-20T05:29:50;68.90;;;41.30;;
58784;SDS011;44557;51.862;19.378;2022-11-20T05:30:51;73.20;;;43.60;;
58784;SDS011;44557;51.862;19.378;2022-11-20T05:31:52;73.80;;;45.20;;
58784;SDS011;44557;51.862;19.378;2022-11-20T05:32:53;70.70;;;42.90;;
58784;SDS011;44557;51.862;19.378;2022-11-20T05:33:55;69.80;;;42.60;;
58784;SDS011;44557;51.862;19.378;2022-11-20T05:34:57;73.30;;;42.00;;
58784;SDS011;44557;51.862;19.378;2022-11-20T05:35:58;69.90;;;42.40;;
58784;SDS011;44557;51.862;19.378;2022-11-20T05:36:59;70.90;;;44.50;;
58784;SDS011;44557;51.862;19.378;2022-11-20T05:38:00;69.80;;;42.50;;
58784;SDS011;44557;51.862;19.378;2022-11-20T05:39:01;65.80;;;42.40;;
58784;SDS011;44557;51.862;19.378;2022-11-20T05:40:02;65.20;;;41.60;;
58784;SDS011;44557;51.862;19.378;2022-11-20T05:41:03;66.70;;;41.90;;
58784;SDS011;44557;51.862;19.378;2022-11-20T05:42:05;66.30;;;42.00;;
58784;SDS011;44557;51.862;19.378;2022-11-20T05:43:24;65.30;;;40.90;;
58784;SDS011;44557;51.862;19.378;2022-11-20T05:44:25;67.40;;;41.60;;
58784;SDS011;44557;51.862;19.378;2022-11-20T05:45:26;68.40;;;41.90;;
58784;SDS011;44557;51.862;19.378;2022-11-20T05:46:27;64.30;;;40.70;;
58784;SDS011;44557;51.862;19.378;2022-11-20T05:47:30;65.50;;;39.50;;
58784;SDS011;44557;51.862;19.378;2022-11-20T05:48:36;64.20;;;41.60;;
58784;SDS011;44557;51.862;19.378;2022-11-20T05:49:38;68.90;;;42.70;;
58784;SDS011;44557;51.862;19.378;2022-11-20T05:50:38;67.20;;;42.50;;
58784;SDS011;44557;51.862;19.378;2022-11-20T05:51:39;69.00;;;42.50;;
58784;SDS011;44557;51.862;19.378;2022-11-20T05:52:40;68.10;;;42.30;;
58784;SDS011;44557;51.862;19.378;2022-11-20T05:53:41;72.00;;;45.10;;
58784;SDS011;44557;51.862;19.378;2022-11-20T05:54:43;68.90;;;43.30;;
58784;SDS011;44557;51.862;19.378;2022-11-20T05:55:43;72.80;;;44.30;;
58784;SDS011;44557;51.862;19.378;2022-11-20T05:56:44;70.40;;;43.50;;
58784;SDS011;44557;51.862;19.378;2022-11-20T05:57:45;69.70;;;42.60;;
58784;SDS011;44557;51.862;19.378;2022-11-20T05:58:47;66.60;;;41.20;;
58784;SDS011;44557;51.862;19.378;2022-11-20T05:59:49;69.70;;;42.20;;
58784;SDS011;44557;51.862;19.378;2022-11-20T06:00:49;72.80;;;43.40;;
58784;SDS011;44557;51.862;19.378;2022-11-20T06:01:50;66.00;;;42.20;;
58784;SDS011;44557;51.862;19.378;2022-11-20T06:02:51;72.70;;;43.20;;
58784;SDS011;44557;51.862;19.378;2022-11-20T06:03:53;65.40;;;42.00;;
58784;SDS011;44557;51.862;19.378;2022-11-20T06:04:54;70.80;;;41.50;;
58784;SDS011;44557;51.862;19.378;2022-11-20T06:05:55;63.20;;;40.80;;